createdAt,value
2023-05-22T09:04:30.074Z,770.63
2023-05-22T09:06:59.839Z,826.88
2023-05-22T09:08:08.344Z,900.00
2023-05-22T09:08:59.808Z,900.00
2023-05-22T09:09:59.798Z,855.00
2023-05-22T09:10:59.814Z,877.50
2023-05-22T09:11:59.756Z,883.13
2023-05-22T09:12:59.750Z,849.38
2023-05-22T09:13:59.746Z,849.38
2023-05-22T09:14:59.722Z,843.75
2023-05-22T09:15:59.737Z,821.25
2023-05-22T09:18:14.446Z,798.75
2023-05-22T09:19:14.431Z,765.00
2023-05-22T09:20:14.394Z,708.75
2023-05-22T09:35:02.174Z,821.25
2023-05-22T09:36:02.204Z,821.25
2023-05-22T09:37:02.165Z,725.63
2023-05-22T09:38:02.140Z,725.63
2023-05-22T09:39:02.151Z,725.63
2023-05-22T09:40:02.114Z,720.00
2023-05-22T09:41:02.104Z,708.75
2023-05-22T09:42:02.064Z,708.75
2023-05-22T09:43:02.081Z,776.25
2023-05-22T09:44:02.394Z,815.63
2023-05-22T09:45:02.055Z,855.00
2023-05-22T09:46:02.503Z,888.75
2023-05-22T09:47:09.056Z,945.00
2023-05-22T09:48:02.064Z,967.50
2023-05-22T09:49:01.984Z,855.00
2023-05-22T09:50:01.985Z,765.00
2023-05-22T09:54:17.005Z,877.50
2023-05-22T09:55:16.979Z,826.88
2023-05-22T09:56:24.008Z,731.25
2023-05-22T09:59:51.136Z,652.50
2023-05-22T10:01:36.451Z,714.38
2023-05-22T10:02:36.395Z,748.13
2023-05-22T10:03:36.388Z,765.00
2023-05-22T10:04:36.427Z,736.88
2023-05-22T10:05:36.388Z,748.13
2023-05-22T10:06:36.371Z,720.00
2023-05-22T10:07:36.352Z,708.75
2023-05-22T10:08:36.320Z,787.50
2023-05-22T10:09:36.328Z,798.75
2023-05-22T10:10:36.324Z,793.13
2023-05-22T10:11:36.328Z,765.00
2023-05-22T10:12:36.262Z,708.75
2023-05-22T10:13:36.276Z,731.25
2023-05-22T10:14:45.618Z,849.38
2023-05-22T10:15:36.242Z,826.88
2023-05-22T10:16:36.269Z,815.63
2023-05-22T10:17:36.242Z,810.00
2023-05-22T10:18:36.186Z,945.00
2023-05-22T10:19:37.733Z,950.63
2023-05-22T10:20:36.197Z,855.00
2023-05-22T10:21:36.154Z,793.13
2023-05-22T10:23:43.306Z,742.50
2023-05-22T10:24:43.356Z,826.88
2023-05-22T10:25:43.290Z,821.25
2023-05-22T10:26:43.255Z,708.75
2023-05-22T10:27:43.274Z,680.63
2023-05-22T10:28:43.267Z,697.50
2023-05-22T10:29:43.234Z,753.75
2023-05-22T10:30:43.399Z,810.00
2023-05-22T10:31:43.205Z,905.63
2023-05-22T10:32:43.259Z,866.25
2023-05-22T10:33:43.222Z,776.25
2023-05-22T10:34:43.186Z,787.50
2023-05-22T10:35:43.172Z,742.50
2023-05-22T10:36:43.755Z,781.88
2023-05-22T10:37:43.158Z,798.75
2023-05-22T10:38:43.133Z,883.13
2023-05-22T10:39:43.130Z,843.75
2023-05-22T10:40:43.218Z,703.13
2023-05-22T10:42:08.125Z,686.25
2023-05-22T10:43:08.140Z,736.88
2023-05-22T10:44:08.114Z,714.38
2023-05-22T10:45:08.139Z,731.25
2023-05-22T10:46:08.117Z,765.00
2023-05-22T10:47:08.093Z,855.00
2023-05-22T10:48:08.249Z,950.63
2023-05-22T10:49:08.038Z,973.13
2023-05-22T10:50:08.084Z,894.38
2023-05-22T10:51:08.024Z,804.38
2023-05-22T10:52:08.005Z,765.00
2023-05-22T10:53:07.993Z,826.88
2023-05-22T10:54:15.843Z,871.88
2023-05-22T10:55:07.981Z,916.88
2023-05-22T10:56:08.039Z,911.25
2023-05-22T10:57:07.976Z,928.13
2023-05-22T10:58:07.975Z,871.88
2023-05-22T10:59:08.167Z,798.75
2023-05-22T11:00:07.928Z,883.13
2023-05-22T11:01:07.900Z,967.50
2023-05-22T11:02:09.689Z,900.00
2023-05-22T11:03:17.301Z,804.38
2023-05-22T11:04:07.859Z,832.50
2023-05-22T11:05:07.916Z,900.00
2023-05-22T11:06:07.863Z,1001.25
2023-05-22T11:07:07.870Z,978.75
2023-05-22T11:08:07.831Z,990.00
2023-05-22T11:09:07.811Z,916.88
2023-05-22T11:10:07.800Z,950.63
2023-05-22T11:11:07.804Z,798.75
2023-05-22T11:12:07.861Z,770.63
2023-05-22T11:13:07.780Z,787.50
2023-05-22T11:14:07.761Z,922.50
2023-05-22T11:15:07.785Z,905.63
2023-05-22T11:16:07.720Z,1001.25
2023-05-22T11:17:07.834Z,1096.88
2023-05-22T11:18:07.752Z,1040.63
2023-05-22T11:19:21.672Z,1018.13
2023-05-22T11:20:07.795Z,995.63
2023-05-22T11:21:07.688Z,905.63
2023-05-22T11:22:07.660Z,922.50
2023-05-22T11:23:07.673Z,928.13
2023-05-22T11:24:07.634Z,849.38
2023-05-22T11:25:07.648Z,922.50
2023-05-22T11:26:07.601Z,945.00
2023-05-22T11:27:07.615Z,990.00
2023-05-22T11:28:07.658Z,1057.50
2023-05-22T11:29:07.614Z,984.38
2023-05-22T11:30:07.566Z,860.63
2023-05-22T11:31:07.619Z,781.88
2023-05-22T11:32:07.553Z,849.38
2023-05-22T11:33:07.585Z,793.13
2023-05-22T11:34:07.617Z,838.13
2023-05-22T11:35:07.669Z,866.25
2023-05-22T11:36:07.540Z,877.50
2023-05-22T11:37:07.514Z,894.38
2023-05-22T11:38:07.519Z,810.00
2023-05-22T11:39:07.460Z,832.50
2023-05-22T11:40:07.474Z,838.13
2023-05-22T11:41:07.431Z,877.50
2023-05-22T11:42:07.463Z,911.25
2023-05-22T11:43:07.424Z,877.50
2023-05-22T11:44:07.472Z,804.38
2023-05-22T11:45:07.437Z,815.63
2023-05-22T11:46:07.407Z,888.75
2023-05-22T11:47:07.371Z,905.63
2023-05-22T11:48:07.419Z,866.25
2023-05-22T11:49:07.341Z,900.00
2023-05-22T11:50:07.359Z,888.75
2023-05-22T11:51:07.338Z,883.13
2023-05-22T11:52:07.315Z,877.50
2023-05-22T11:53:07.299Z,877.50
2023-05-22T11:54:07.308Z,871.88
2023-05-22T11:55:07.281Z,871.88
2023-05-22T11:56:07.273Z,877.50
2023-05-22T11:57:07.244Z,922.50
2023-05-22T11:58:07.248Z,894.38
2023-05-22T11:59:07.227Z,832.50
2023-05-22T12:00:07.332Z,855.00
2023-05-22T12:01:07.220Z,888.75
2023-05-22T12:02:07.178Z,883.13
2023-05-22T12:03:07.286Z,871.88
2023-05-22T12:04:07.268Z,888.75
2023-05-22T12:05:07.184Z,905.63
2023-05-22T12:06:07.169Z,922.50
2023-05-22T12:07:07.142Z,945.00
2023-05-22T12:08:07.130Z,922.50
2023-05-22T12:09:07.125Z,939.38
2023-05-22T12:10:07.159Z,995.63
2023-05-22T12:11:07.091Z,1012.50
2023-05-22T12:12:07.059Z,933.75
2023-05-22T12:13:07.075Z,860.63
2023-05-22T12:14:07.054Z,973.13
2023-05-22T12:15:07.102Z,973.13
2023-05-22T12:16:07.147Z,922.50
2023-05-22T12:17:07.024Z,945.00
2023-05-22T12:18:07.027Z,922.50
2023-05-22T12:19:07.036Z,961.88
2023-05-22T12:20:06.987Z,978.75
2023-05-22T12:21:06.995Z,995.63
2023-05-22T12:22:06.962Z,956.25
2023-05-22T12:23:06.942Z,950.63
2023-05-22T12:24:07.010Z,956.25
2023-05-22T12:25:06.934Z,978.75
2023-05-22T12:26:06.923Z,967.50
2023-05-22T12:27:06.921Z,911.25
2023-05-22T12:28:06.935Z,933.75
2023-05-22T12:29:06.896Z,978.75
2023-05-22T12:30:06.923Z,956.25
2023-05-22T12:31:06.896Z,1023.75
2023-05-22T12:32:06.980Z,1001.25
2023-05-22T12:33:06.881Z,883.13
2023-05-22T12:34:06.836Z,905.63
2023-05-22T12:35:07.281Z,939.38
2023-05-22T12:36:06.830Z,984.38
2023-05-22T12:37:06.781Z,1040.63
2023-05-22T12:38:06.763Z,1023.75
2023-05-22T12:39:06.753Z,973.13
2023-05-22T12:40:06.734Z,978.75
2023-05-22T12:41:06.758Z,945.00
2023-05-22T12:42:06.732Z,950.63
2023-05-22T12:43:06.712Z,967.50
2023-05-22T12:44:06.720Z,973.13
2023-05-22T12:45:06.704Z,1001.25
2023-05-22T12:46:06.742Z,978.75
2023-05-22T12:47:06.670Z,1029.38
2023-05-22T12:48:06.881Z,1023.75
2023-05-22T12:49:06.672Z,1023.75
2023-05-22T12:50:06.659Z,1006.88
2023-05-22T12:51:06.635Z,1012.50
2023-05-22T12:52:06.629Z,995.63
2023-05-22T12:53:06.600Z,973.13
2023-05-22T12:54:06.609Z,978.75
2023-05-22T12:55:06.613Z,990.00
2023-05-22T12:56:06.589Z,995.63
2023-05-22T12:57:06.587Z,995.63
2023-05-22T12:58:06.569Z,995.63
2023-05-22T12:59:06.565Z,1029.38
2023-05-22T13:00:06.523Z,1068.75
2023-05-22T13:01:06.578Z,1102.50
2023-05-22T13:02:06.584Z,1153.13
2023-05-22T13:03:06.596Z,1428.75
2023-05-22T13:04:06.574Z,2058.75
2023-05-22T13:05:06.554Z,2340.00
2023-05-22T13:06:06.519Z,2525.63
2023-05-22T13:07:06.460Z,2508.75
2023-05-22T13:08:06.458Z,2446.88
2023-05-22T13:09:06.498Z,2520.00
2023-05-22T13:10:06.434Z,2486.25
2023-05-22T13:11:06.431Z,2570.63
2023-05-22T13:12:06.470Z,2514.38
2023-05-22T13:13:06.395Z,2559.38
2023-05-22T13:14:06.397Z,2615.63
2023-05-22T13:15:06.405Z,2615.63
2023-05-22T13:16:06.386Z,2666.25
2023-05-22T13:17:06.359Z,2700.00
2023-05-22T13:18:06.431Z,2705.63
2023-05-22T13:19:06.390Z,2694.38
2023-05-22T13:20:06.533Z,2655.00
2023-05-22T13:21:06.351Z,2790.00
2023-05-22T13:22:06.322Z,2655.00
2023-05-22T13:23:06.308Z,2677.50
2023-05-22T13:24:06.284Z,2660.63
2023-05-22T13:25:06.285Z,2649.38
2023-05-22T13:26:06.299Z,2784.38
2023-05-22T13:27:06.278Z,2936.25
2023-05-22T13:28:06.253Z,3121.88
2023-05-22T13:29:06.287Z,3121.88
2023-05-22T13:30:06.233Z,2683.13
2023-05-22T13:31:06.263Z,2328.75
2023-05-22T13:32:06.226Z,2255.63
2023-05-22T13:33:06.248Z,2497.50
2023-05-22T13:34:06.238Z,2351.25
2023-05-22T13:35:06.237Z,2227.50
2023-05-22T13:36:06.271Z,2171.25
2023-05-22T13:37:06.178Z,2199.38
2023-05-22T13:38:06.181Z,2092.50
2023-05-22T13:39:06.160Z,2025.00
2023-05-22T13:40:06.157Z,2047.50
2023-05-22T13:41:06.161Z,1980.00
2023-05-22T13:42:06.150Z,1985.63
2023-05-22T13:43:06.143Z,1996.88
2023-05-22T13:44:06.134Z,1985.63
2023-05-22T13:45:06.147Z,2025.00
2023-05-22T13:46:06.113Z,2058.75
2023-05-22T13:47:06.163Z,2075.63
2023-05-22T13:48:06.112Z,2075.63
2023-05-22T13:49:06.082Z,2070.00
2023-05-22T13:50:06.099Z,2098.13
2023-05-22T13:51:06.079Z,2053.13
2023-05-22T13:52:06.130Z,2098.13
2023-05-22T13:53:06.100Z,2098.13
2023-05-22T13:54:06.046Z,2131.88
2023-05-22T13:55:06.060Z,2255.63
2023-05-22T13:56:06.040Z,2266.88
2023-05-22T13:57:06.033Z,2418.75
2023-05-22T13:58:06.032Z,2576.25
2023-05-22T13:59:08.440Z,2480.63
2023-05-22T14:00:05.991Z,1389.38
2023-05-22T14:01:06.060Z,2407.50
2023-05-22T14:02:06.043Z,2385.00
2023-05-22T14:03:06.093Z,2379.38
2023-05-22T14:04:05.985Z,2581.88
2023-05-22T14:05:05.967Z,2576.25
2023-05-22T14:06:05.955Z,2458.13
2023-05-22T14:07:05.948Z,2587.50
2023-05-22T14:08:06.024Z,2553.75
2023-05-22T14:09:05.961Z,2626.88
2023-05-22T14:10:05.919Z,2508.75
2023-05-22T14:11:05.946Z,2615.63
2023-05-22T14:12:05.916Z,2379.38
2023-05-22T14:13:05.913Z,2373.75
2023-05-22T14:14:05.913Z,2469.38
2023-05-22T14:15:05.907Z,2514.38
2023-05-22T14:16:05.888Z,2621.25
2023-05-22T14:17:05.938Z,2548.13
2023-05-22T14:18:05.910Z,2581.88
2023-05-22T14:19:05.883Z,2610.00
2023-05-22T14:20:05.867Z,2649.38
2023-05-22T14:21:05.898Z,2289.38
2023-05-22T14:22:05.907Z,2362.50
2023-05-22T14:23:05.863Z,2548.13
2023-05-22T14:24:05.916Z,2548.13
2023-05-22T14:25:05.847Z,2058.75
2023-05-22T14:26:05.838Z,2430.00
2023-05-22T14:27:05.812Z,2536.88
2023-05-22T14:28:05.798Z,2486.25
2023-05-22T14:29:05.819Z,2446.88
2023-05-22T14:30:05.794Z,2463.75
2023-05-22T14:31:05.861Z,2469.38
2023-05-22T14:32:05.781Z,2480.63
2023-05-22T14:33:05.852Z,2480.63
2023-05-22T14:34:05.763Z,2514.38
2023-05-22T14:35:05.768Z,2075.63
2023-05-22T14:36:05.768Z,1434.38
2023-05-22T14:37:05.754Z,2458.13
2023-05-22T14:38:05.746Z,2323.13
2023-05-22T14:39:05.739Z,2205.00
2023-05-22T14:40:05.832Z,2227.50
2023-05-22T14:41:05.771Z,2311.88
2023-05-22T14:42:05.756Z,2362.50
2023-05-22T14:43:05.756Z,2396.25
2023-05-22T14:44:05.714Z,2525.63
2023-05-22T14:45:05.717Z,2565.00
2023-05-22T14:46:05.765Z,2446.88
2023-05-22T14:47:05.725Z,2424.38
2023-05-22T14:48:05.760Z,2503.13
2023-05-22T14:49:05.693Z,2469.38
2023-05-22T14:50:18.270Z,2385.00
2023-05-22T14:51:05.673Z,2373.75
2023-05-22T14:52:05.698Z,2272.50
2023-05-22T14:53:05.690Z,2266.88
2023-05-22T14:54:05.852Z,2221.88
2023-05-22T14:55:05.664Z,2323.13
2023-05-22T14:56:05.768Z,2368.13
2023-05-22T14:57:05.657Z,2317.50
2023-05-22T14:58:05.640Z,2278.13
2023-05-22T14:59:05.663Z,2385.00
2023-05-22T15:00:05.663Z,2356.88
2023-05-22T15:01:05.687Z,1749.38
2023-05-22T15:02:05.697Z,2008.13
2023-05-22T15:03:05.625Z,2176.88
2023-05-22T15:04:05.608Z,2356.88
2023-05-22T15:05:05.722Z,2340.00
2023-05-22T15:06:05.597Z,2441.25
2023-05-22T15:07:05.646Z,2396.25
2023-05-22T15:08:05.610Z,1310.63
2023-05-22T15:09:05.570Z,2205.00
2023-05-22T15:10:05.721Z,2351.25
2023-05-22T15:11:05.588Z,2441.25
2023-05-22T15:12:05.694Z,2373.75
2023-05-22T15:13:05.554Z,2300.63
2023-05-22T15:14:05.581Z,2283.75
2023-05-22T15:15:05.599Z,2289.38
2023-05-22T15:16:05.564Z,2283.75
2023-05-22T15:17:05.573Z,2368.13
2023-05-22T15:18:05.607Z,2368.13
2023-05-22T15:19:05.565Z,2345.63
2023-05-22T15:20:05.551Z,2098.13
2023-05-22T15:21:05.528Z,2160.00
2023-05-22T15:22:18.373Z,2019.38
2023-05-22T15:23:05.497Z,1659.38
2023-05-22T15:24:05.502Z,1665.00
2023-05-22T15:25:05.491Z,2013.75
2023-05-22T15:26:05.484Z,1873.13
2023-05-22T15:27:05.510Z,2075.63
2023-05-22T15:28:05.569Z,2098.13
2023-05-22T15:29:05.477Z,1991.25
2023-05-22T15:30:05.563Z,1901.25
2023-05-22T15:31:05.449Z,1777.50
2023-05-22T15:32:05.493Z,1935.00
2023-05-22T15:33:05.492Z,1935.00
2023-05-22T15:34:05.439Z,2013.75
2023-05-22T15:35:05.437Z,1980.00
2023-05-22T15:36:05.424Z,1951.88
2023-05-22T15:37:05.442Z,1816.88
2023-05-22T15:38:05.410Z,1901.25
2023-05-22T15:39:05.403Z,1968.75
2023-05-22T15:40:05.423Z,1873.13
2023-05-22T15:41:05.414Z,1906.88
2023-05-22T15:42:06.802Z,1828.13
2023-05-22T15:43:05.394Z,1777.50
2023-05-22T15:44:05.455Z,1771.88
2023-05-22T15:45:05.401Z,1811.25
2023-05-22T15:46:05.405Z,1822.50
2023-05-22T15:47:05.365Z,1839.38
2023-05-22T15:48:05.446Z,1766.25
2023-05-22T15:49:05.369Z,1726.88
2023-05-22T15:50:05.349Z,1513.13
2023-05-22T15:51:05.326Z,1653.75
2023-05-22T15:52:05.377Z,1693.13
2023-05-22T15:53:05.334Z,1771.88
2023-05-22T15:54:05.336Z,1715.63
2023-05-22T15:55:05.377Z,1591.88
2023-05-22T15:56:05.335Z,1738.13
2023-05-22T15:57:05.318Z,1693.13
2023-05-22T15:58:05.306Z,1552.50
2023-05-22T15:59:05.278Z,1676.25
2023-05-22T16:00:05.371Z,1636.88
2023-05-22T16:01:05.332Z,1693.13
2023-05-22T16:02:05.311Z,1507.50
2023-05-22T16:03:05.350Z,1575.00
2023-05-22T16:04:05.273Z,1462.50
2023-05-22T16:05:05.314Z,1608.75
2023-05-22T16:06:05.273Z,1541.25
2023-05-22T16:10:55.669Z,1186.88
2023-05-22T16:11:55.654Z,1271.25
